Terminal Aerodrome Forecast
Issued by NWS

Home | Current Version | Previous Version | Graphics & Text | Print | Product List | Glossary On
Versions: 1 2 3 4 5 6 7 8 9 10 11 12 13 14 15 16 17 18 19 20 21 22 23 24
000
FTUS41 KCLE 030500
TAFFDY
TAF
KFDY 030537Z 0306/0406 19004KT P6SM SCT100 BKN250
     FM031300 22008KT P6SM BKN100 OVC250
     FM031800 22012G20KT P6SM SCT060 BKN250
     FM040100 19006KT P6SM FEW100 SCT250=

USA.gov is the U.S. government's official web portal to all federal, state and local government web resources and services.